sensor_id;sensor_type;location;lat;lon;timestamp;pressure;altitude;pressure_sealevel;temperature;humidity
57462;BME280;43308;47.306;8.608;2024-02-21T00:00:48;96339.47;;;4.83;71.81
57462;BME280;43308;47.306;8.608;2024-02-21T00:03:14;96341.09;;;4.84;71.90
57462;BME280;43308;47.306;8.608;2024-02-21T00:05:40;96335.22;;;4.82;71.69
57462;BME280;43308;47.306;8.608;2024-02-21T00:08:06;96338.94;;;4.81;71.79
57462;BME280;43308;47.306;8.608;2024-02-21T00:10:32;96340.22;;;4.78;72.13
57462;BME280;43308;47.306;8.608;2024-02-21T00:12:58;96338.59;;;4.77;72.04
57462;BME280;43308;47.306;8.608;2024-02-21T00:15:28;96344.09;;;4.76;72.18
57462;BME280;43308;47.306;8.608;2024-02-21T00:17:54;96345.72;;;4.77;72.16
57462;BME280;43308;47.306;8.608;2024-02-21T00:20:20;96335.13;;;4.77;72.05
57462;BME280;43308;47.306;8.608;2024-02-21T00:22:46;96333.28;;;4.77;72.33
57462;BME280;43308;47.306;8.608;2024-02-21T00:25:12;96332.97;;;4.74;72.22
57462;BME280;43308;47.306;8.608;2024-02-21T00:27:38;96328.69;;;4.73;72.25
57462;BME280;43308;47.306;8.608;2024-02-21T00:30:07;96341.34;;;4.71;72.49
57462;BME280;43308;47.306;8.608;2024-02-21T00:32:33;96328.34;;;4.69;72.32
57462;BME280;43308;47.306;8.608;2024-02-21T00:35:00;96319.31;;;4.65;72.27
57462;BME280;43308;47.306;8.608;2024-02-21T00:37:27;96312.88;;;4.61;72.29
57462;BME280;43308;47.306;8.608;2024-02-21T00:39:54;96313.09;;;4.60;72.25
57462;BME280;43308;47.306;8.608;2024-02-21T00:42:20;96318.84;;;4.57;72.67
57462;BME280;43308;47.306;8.608;2024-02-21T00:44:47;96308.50;;;4.55;72.38
57462;BME280;43308;47.306;8.608;2024-02-21T00:47:13;96307.94;;;4.53;72.76
57462;BME280;43308;47.306;8.608;2024-02-21T00:49:39;96320.38;;;4.53;73.14
57462;BME280;43308;47.306;8.608;2024-02-21T00:52:05;96314.94;;;4.48;73.05
57462;BME280;43308;47.306;8.608;2024-02-21T00:54:31;96314.41;;;4.46;73.06
57462;BME280;43308;47.306;8.608;2024-02-21T00:56:57;96307.75;;;4.43;72.74
57462;BME280;43308;47.306;8.608;2024-02-21T00:59:23;96296.56;;;4.41;73.08
57462;BME280;43308;47.306;8.608;2024-02-21T01:01:49;96277.50;;;4.39;73.17
57462;BME280;43308;47.306;8.608;2024-02-21T01:04:15;96278.78;;;4.37;73.25
57462;BME280;43308;47.306;8.608;2024-02-21T01:06:41;96283.81;;;4.38;73.21
57462;BME280;43308;47.306;8.608;2024-02-21T01:09:11;96279.00;;;4.35;73.17
57462;BME280;43308;47.306;8.608;2024-02-21T01:11:36;96279.25;;;4.34;73.27
57462;BME280;43308;47.306;8.608;2024-02-21T01:14:03;96287.63;;;4.31;73.54
57462;BME280;43308;47.306;8.608;2024-02-21T01:16:28;96289.22;;;4.32;73.45
57462;BME280;43308;47.306;8.608;2024-02-21T01:18:54;96297.97;;;4.32;73.54
57462;BME280;43308;47.306;8.608;2024-02-21T01:21:21;96297.50;;;4.35;73.57
57462;BME280;43308;47.306;8.608;2024-02-21T01:23:47;96298.88;;;4.38;73.84
57462;BME280;43308;47.306;8.608;2024-02-21T01:26:13;96289.91;;;4.39;73.56
57462;BME280;43308;47.306;8.608;2024-02-21T01:28:41;96285.66;;;4.38;73.83
57462;BME280;43308;47.306;8.608;2024-02-21T01:31:07;96297.03;;;4.38;73.92
57462;BME280;43308;47.306;8.608;2024-02-21T01:33:33;96298.09;;;4.37;73.99
57462;BME280;43308;47.306;8.608;2024-02-21T01:36:05;96297.75;;;4.34;74.03
57462;BME280;43308;47.306;8.608;2024-02-21T01:38:34;96289.00;;;4.33;74.14
57462;BME280;43308;47.306;8.608;2024-02-21T01:41:00;96297.75;;;4.34;74.51
57462;BME280;43308;47.306;8.608;2024-02-21T01:43:27;96296.59;;;4.29;74.27
57462;BME280;43308;47.306;8.608;2024-02-21T01:45:55;96291.31;;;4.29;74.80
57462;BME280;43308;47.306;8.608;2024-02-21T01:48:22;96292.13;;;4.30;74.49
57462;BME280;43308;47.306;8.608;2024-02-21T01:50:49;96283.38;;;4.29;75.17
57462;BME280;43308;47.306;8.608;2024-02-21T01:53:23;96288.91;;;4.28;75.21
57462;BME280;43308;47.306;8.608;2024-02-21T01:55:51;96283.16;;;4.31;74.80
57462;BME280;43308;47.306;8.608;2024-02-21T01:58:18;96282.34;;;4.31;74.89
57462;BME280;43308;47.306;8.608;2024-02-21T02:00:46;96265.69;;;4.30;74.86
57462;BME280;43308;47.306;8.608;2024-02-21T02:03:15;96260.41;;;4.30;75.39
57462;BME280;43308;47.306;8.608;2024-02-21T02:05:45;96255.13;;;4.30;75.06
57462;BME280;43308;47.306;8.608;2024-02-21T02:08:15;96253.63;;;4.34;75.53
57462;BME280;43308;47.306;8.608;2024-02-21T02:10:42;96248.91;;;4.36;75.23
57462;BME280;43308;47.306;8.608;2024-02-21T02:13:08;96248.44;;;4.39;75.11
57462;BME280;43308;47.306;8.608;2024-02-21T02:15:45;96235.53;;;4.43;75.11
57462;BME280;43308;47.306;8.608;2024-02-21T02:18:12;96231.63;;;4.45;74.97
57462;BME280;43308;47.306;8.608;2024-02-21T02:20:39;96227.16;;;4.46;75.38
57462;BME280;43308;47.306;8.608;2024-02-21T02:23:33;96221.84;;;4.46;75.18
57462;BME280;43308;47.306;8.608;2024-02-21T02:25:58;96229.88;;;4.51;75.31
57462;BME280;43308;47.306;8.608;2024-02-21T02:28:24;96236.31;;;4.55;75.58
57462;BME280;43308;47.306;8.608;2024-02-21T02:30:50;96221.25;;;4.55;75.36
57462;BME280;43308;47.306;8.608;2024-02-21T02:33:16;96219.97;;;4.58;75.25
57462;BME280;43308;47.306;8.608;2024-02-21T02:35:45;96213.88;;;4.57;75.90
57462;BME280;43308;47.306;8.608;2024-02-21T02:38:11;96212.03;;;4.58;75.70
57462;BME280;43308;47.306;8.608;2024-02-21T02:40:39;96196.16;;;4.58;75.76
57462;BME280;43308;47.306;8.608;2024-02-21T02:43:06;96193.06;;;4.61;76.10
57462;BME280;43308;47.306;8.608;2024-02-21T02:45:32;96192.84;;;4.62;76.04
57462;BME280;43308;47.306;8.608;2024-02-21T02:47:59;96192.84;;;4.62;76.10
57462;BME280;43308;47.306;8.608;2024-02-21T02:50:25;96193.38;;;4.64;75.81
57462;BME280;43308;47.306;8.608;2024-02-21T02:52:52;96212.22;;;4.68;75.72
57462;BME280;43308;47.306;8.608;2024-02-21T02:55:18;96196.59;;;4.66;75.12
57462;BME280;43308;47.306;8.608;2024-02-21T02:57:44;96186.00;;;4.66;75.57
57462;BME280;43308;47.306;8.608;2024-02-21T03:00:11;96183.06;;;4.63;75.99
57462;BME280;43308;47.306;8.608;2024-02-21T03:02:38;96183.06;;;4.63;75.97
57462;BME280;43308;47.306;8.608;2024-02-21T03:05:15;96176.16;;;4.62;75.98
57462;BME280;43308;47.306;8.608;2024-02-21T03:07:41;96171.69;;;4.62;75.78
57462;BME280;43308;47.306;8.608;2024-02-21T03:10:08;96169.25;;;4.61;75.72
57462;BME280;43308;47.306;8.608;2024-02-21T03:12:34;96164.44;;;4.58;75.87
57462;BME280;43308;47.306;8.608;2024-02-21T03:15:01;96160.19;;;4.57;76.23
57462;BME280;43308;47.306;8.608;2024-02-21T03:17:27;96158.94;;;4.59;76.28
57462;BME280;43308;47.306;8.608;2024-02-21T03:19:53;96153.88;;;4.58;76.37
57462;BME280;43308;47.306;8.608;2024-02-21T03:22:21;96145.59;;;4.54;76.31
57462;BME280;43308;47.306;8.608;2024-02-21T03:24:47;96149.59;;;4.57;75.97
57462;BME280;43308;47.306;8.608;2024-02-21T03:27:13;96138.00;;;4.58;76.14
57462;BME280;43308;47.306;8.608;2024-02-21T03:29:39;96126.38;;;4.59;76.14
57462;BME280;43308;47.306;8.608;2024-02-21T03:32:05;96115.34;;;4.62;75.57
57462;BME280;43308;47.306;8.608;2024-02-21T03:34:31;96115.88;;;4.64;75.71
57462;BME280;43308;47.306;8.608;2024-02-21T03:36:57;96118.06;;;4.67;75.18
57462;BME280;43308;47.306;8.608;2024-02-21T03:39:23;96119.41;;;4.69;74.96
57462;BME280;43308;47.306;8.608;2024-02-21T03:41:49;96113.69;;;4.72;75.11
57462;BME280;43308;47.306;8.608;2024-02-21T03:44:14;96098.03;;;4.71;74.84
57462;BME280;43308;47.306;8.608;2024-02-21T03:46:40;96094.91;;;4.74;74.36
57462;BME280;43308;47.306;8.608;2024-02-21T03:49:06;96093.28;;;4.73;74.38
57462;BME280;43308;47.306;8.608;2024-02-21T03:51:32;96085.94;;;4.75;74.29
57462;BME280;43308;47.306;8.608;2024-02-21T03:53:58;96081.19;;;4.77;73.77
57462;BME280;43308;47.306;8.608;2024-02-21T03:56:24;96068.53;;;4.79;73.26
57462;BME280;43308;47.306;8.608;2024-02-21T03:58:50;96060.59;;;4.79;72.86
57462;BME280;43308;47.306;8.608;2024-02-21T04:01:16;96052.91;;;4.77;72.71
57462;BME280;43308;47.306;8.608;2024-02-21T04:03:44;96054.75;;;4.77;72.52
57462;BME280;43308;47.306;8.608;2024-02-21T04:06:10;96048.66;;;4.76;72.45
57462;BME280;43308;47.306;8.608;2024-02-21T04:08:36;96045.47;;;4.74;72.09
57462;BME280;43308;47.306;8.608;2024-02-21T04:11:02;96063.72;;;4.76;72.20
57462;BME280;43308;47.306;8.608;2024-02-21T04:13:28;96055.78;;;4.76;72.10
57462;BME280;43308;47.306;8.608;2024-02-21T04:15:54;96065.31;;;4.77;71.99
57462;BME280;43308;47.306;8.608;2024-02-21T04:18:19;96051.06;;;4.78;71.29
57462;BME280;43308;47.306;8.608;2024-02-21T04:20:46;96057.94;;;4.79;71.44
57462;BME280;43308;47.306;8.608;2024-02-21T04:23:12;96051.56;;;4.75;71.67
57462;BME280;43308;47.306;8.608;2024-02-21T04:25:38;96053.63;;;4.73;71.83
57462;BME280;43308;47.306;8.608;2024-02-21T04:28:04;96056.53;;;4.71;72.63
57462;BME280;43308;47.306;8.608;2024-02-21T04:30:30;96051.13;;;4.66;72.37
57462;BME280;43308;47.306;8.608;2024-02-21T04:32:56;96051.38;;;4.65;73.07
57462;BME280;43308;47.306;8.608;2024-02-21T04:35:22;96048.63;;;4.60;73.07
57462;BME280;43308;47.306;8.608;2024-02-21T04:37:48;96049.94;;;4.57;73.30
57462;BME280;43308;47.306;8.608;2024-02-21T04:40:14;96055.38;;;4.51;73.30
57462;BME280;43308;47.306;8.608;2024-02-21T04:42:40;96052.97;;;4.49;73.39
57462;BME280;43308;47.306;8.608;2024-02-21T04:45:06;96063.22;;;4.46;73.53
57462;BME280;43308;47.306;8.608;2024-02-21T04:47:32;96061.53;;;4.40;73.73
57462;BME280;43308;47.306;8.608;2024-02-21T04:49:58;96065.22;;;4.39;73.71
57462;BME280;43308;47.306;8.608;2024-02-21T04:52:24;96058.78;;;4.35;73.94
57462;BME280;43308;47.306;8.608;2024-02-21T04:54:50;96047.13;;;4.31;73.95
57462;BME280;43308;47.306;8.608;2024-02-21T04:57:17;96041.25;;;4.28;74.14
57462;BME280;43308;47.306;8.608;2024-02-21T04:59:46;96030.13;;;4.26;74.02
57462;BME280;43308;47.306;8.608;2024-02-21T05:02:13;96031.63;;;4.22;74.60
57462;BME280;43308;47.306;8.608;2024-02-21T05:04:39;96027.41;;;4.21;74.09
57462;BME280;43308;47.306;8.608;2024-02-21T05:07:07;96014.66;;;4.18;74.50
57462;BME280;43308;47.306;8.608;2024-02-21T05:09:33;96007.53;;;4.19;74.43
57462;BME280;43308;47.306;8.608;2024-02-21T05:11:59;96014.66;;;4.18;74.36
57462;BME280;43308;47.306;8.608;2024-02-21T05:14:26;96014.09;;;4.16;74.32
57462;BME280;43308;47.306;8.608;2024-02-21T05:16:53;96011.91;;;4.13;74.45
57462;BME280;43308;47.306;8.608;2024-02-21T05:19:19;96004.00;;;4.13;74.20
57462;BME280;43308;47.306;8.608;2024-02-21T05:21:45;96008.47;;;4.13;74.53
57462;BME280;43308;47.306;8.608;2024-02-21T05:24:11;96003.19;;;4.13;74.43
57462;BME280;43308;47.306;8.608;2024-02-21T05:26:37;96007.13;;;4.10;74.88
57462;BME280;43308;47.306;8.608;2024-02-21T05:29:03;96018.72;;;4.09;74.39
57462;BME280;43308;47.306;8.608;2024-02-21T05:34:17;96003.66;;;4.10;75.21
57462;BME280;43308;47.306;8.608;2024-02-21T05:36:43;96003.44;;;4.11;75.16
57462;BME280;43308;47.306;8.608;2024-02-21T05:39:10;96003.66;;;4.10;75.21
57462;BME280;43308;47.306;8.608;2024-02-21T05:41:36;95998.16;;;4.11;75.29
57462;BME280;43308;47.306;8.608;2024-02-21T05:44:02;96005.50;;;4.09;75.23
57462;BME280;43308;47.306;8.608;2024-02-21T05:46:28;96006.56;;;4.08;75.50
57462;BME280;43308;47.306;8.608;2024-02-21T05:48:54;96003.09;;;4.08;75.10
57462;BME280;43308;47.306;8.608;2024-02-21T05:51:22;96008.63;;;4.06;75.32
57462;BME280;43308;47.306;8.608;2024-02-21T05:53:48;96007.59;;;4.07;75.36
57462;BME280;43308;47.306;8.608;2024-02-21T05:56:14;96002.31;;;4.07;75.27
57462;BME280;43308;47.306;8.608;2024-02-21T05:58:40;95997.03;;;4.07;75.54
57462;BME280;43308;47.306;8.608;2024-02-21T06:01:07;95984.84;;;4.06;75.59
57462;BME280;43308;47.306;8.608;2024-02-21T06:03:33;95984.63;;;4.08;75.58
57462;BME280;43308;47.306;8.608;2024-02-21T06:06:00;95987.00;;;4.09;75.54
57462;BME280;43308;47.306;8.608;2024-02-21T06:08:26;95979.88;;;4.10;75.84
57462;BME280;43308;47.306;8.608;2024-02-21T06:10:52;95977.25;;;4.10;75.84
57462;BME280;43308;47.306;8.608;2024-02-21T06:13:26;95977.50;;;4.08;76.00
57462;BME280;43308;47.306;8.608;2024-02-21T06:15:52;95974.59;;;4.10;75.96
57462;BME280;43308;47.306;8.608;2024-02-21T06:18:19;95973.25;;;4.07;75.94
57462;BME280;43308;47.306;8.608;2024-02-21T06:20:46;95970.38;;;4.09;76.11
57462;BME280;43308;47.306;8.608;2024-02-21T06:23:16;95968.50;;;4.09;75.97
57462;BME280;43308;47.306;8.608;2024-02-21T06:25:44;95961.66;;;4.08;75.83
57462;BME280;43308;47.306;8.608;2024-02-21T06:28:11;95964.03;;;4.10;75.93
57462;BME280;43308;47.306;8.608;2024-02-21T06:30:40;95969.09;;;4.11;75.61
57462;BME280;43308;47.306;8.608;2024-02-21T06:33:05;95970.66;;;4.12;75.56
57462;BME280;43308;47.306;8.608;2024-02-21T06:35:34;95980.47;;;4.12;75.45
57462;BME280;43308;47.306;8.608;2024-02-21T06:37:59;95971.75;;;4.11;75.87
57462;BME280;43308;47.306;8.608;2024-02-21T06:40:25;95978.84;;;4.11;75.84
57462;BME280;43308;47.306;8.608;2024-02-21T06:42:51;95984.69;;;4.13;75.59
57462;BME280;43308;47.306;8.608;2024-02-21T06:45:17;95985.16;;;4.10;75.54
57462;BME280;43308;47.306;8.608;2024-02-21T06:47:43;95981.25;;;4.12;76.16
57462;BME280;43308;47.306;8.608;2024-02-21T06:50:09;95988.13;;;4.13;75.90
57462;BME280;43308;47.306;8.608;2024-02-21T06:52:38;95982.84;;;4.13;75.24
57462;BME280;43308;47.306;8.608;2024-02-21T06:55:04;95990.78;;;4.13;75.52
57462;BME280;43308;47.306;8.608;2024-02-21T06:57:30;95992.41;;;4.14;75.40
57462;BME280;43308;47.306;8.608;2024-02-21T06:59:56;95992.41;;;4.14;75.40
57462;BME280;43308;47.306;8.608;2024-02-21T07:02:22;95993.41;;;4.13;75.44
57462;BME280;43308;47.306;8.608;2024-02-21T07:04:48;95999.25;;;4.15;75.48
57462;BME280;43308;47.306;8.608;2024-02-21T07:07:14;96002.47;;;4.17;75.42
57462;BME280;43308;47.306;8.608;2024-02-21T07:09:40;95999.03;;;4.17;75.40
57462;BME280;43308;47.306;8.608;2024-02-21T07:12:06;96000.41;;;4.19;75.34
57462;BME280;43308;47.306;8.608;2024-02-21T07:14:32;96002.22;;;4.19;75.32
57462;BME280;43308;47.306;8.608;2024-02-21T07:16:58;96002.00;;;4.20;75.68
57462;BME280;43308;47.306;8.608;2024-02-21T07:19:24;95995.22;;;4.24;75.58
57462;BME280;43308;47.306;8.608;2024-02-21T07:21:50;95998.47;;;4.32;75.56
57462;BME280;43308;47.306;8.608;2024-02-21T07:24:16;95987.44;;;4.35;75.45
57462;BME280;43308;47.306;8.608;2024-02-21T07:26:42;95988.34;;;4.40;75.34
57462;BME280;43308;47.306;8.608;2024-02-21T07:29:09;95976.78;;;4.46;74.88
57462;BME280;43308;47.306;8.608;2024-02-21T07:31:44;95983.50;;;4.54;74.70
57462;BME280;43308;47.306;8.608;2024-02-21T07:34:10;95985.75;;;4.62;74.77
57462;BME280;43308;47.306;8.608;2024-02-21T07:36:36;95988.78;;;4.70;74.60
57462;BME280;43308;47.306;8.608;2024-02-21T07:39:05;95985.97;;;4.77;74.28
57462;BME280;43308;47.306;8.608;2024-02-21T07:41:32;95981.97;;;4.91;74.34
57462;BME280;43308;47.306;8.608;2024-02-21T07:43:59;95975.69;;;4.97;74.09
57462;BME280;43308;47.306;8.608;2024-02-21T07:46:26;95973.41;;;5.06;74.17
57462;BME280;43308;47.306;8.608;2024-02-21T07:48:52;95978.03;;;5.15;73.51
57462;BME280;43308;47.306;8.608;2024-02-21T07:51:18;95972.88;;;5.25;73.17
57462;BME280;43308;47.306;8.608;2024-02-21T07:53:45;95970.47;;;5.24;73.58
57462;BME280;43308;47.306;8.608;2024-02-21T07:56:12;95968.63;;;5.24;73.65
57462;BME280;43308;47.306;8.608;2024-02-21T07:58:38;95971.09;;;5.31;73.55
57462;BME280;43308;47.306;8.608;2024-02-21T08:01:04;95957.41;;;5.39;73.08
57462;BME280;43308;47.306;8.608;2024-02-21T08:03:30;95957.22;;;5.46;72.52
57462;BME280;43308;47.306;8.608;2024-02-21T08:05:56;95948.59;;;5.55;72.36
57462;BME280;43308;47.306;8.608;2024-02-21T08:08:22;95941.03;;;5.64;72.00
57462;BME280;43308;47.306;8.608;2024-02-21T08:10:49;95940.31;;;5.73;71.82
57462;BME280;43308;47.306;8.608;2024-02-21T08:13:15;95939.88;;;5.81;71.63
57462;BME280;43308;47.306;8.608;2024-02-21T08:15:41;95935.19;;;5.88;70.99
57462;BME280;43308;47.306;8.608;2024-02-21T08:18:07;95940.59;;;5.99;71.32
57462;BME280;43308;47.306;8.608;2024-02-21T08:20:34;95934.09;;;6.11;72.58
57462;BME280;43308;47.306;8.608;2024-02-21T08:23:00;95939.69;;;6.15;72.68
57462;BME280;43308;47.306;8.608;2024-02-21T08:25:26;95938.88;;;6.14;73.27
57462;BME280;43308;47.306;8.608;2024-02-21T08:27:57;95937.34;;;6.18;73.58
57462;BME280;43308;47.306;8.608;2024-02-21T08:30:23;95924.34;;;6.22;73.58
57462;BME280;43308;47.306;8.608;2024-02-21T08:32:48;95927.59;;;6.29;72.52
57462;BME280;43308;47.306;8.608;2024-02-21T08:35:14;95919.72;;;6.39;71.69
57462;BME280;43308;47.306;8.608;2024-02-21T08:37:40;95917.16;;;6.49;71.58
57462;BME280;43308;47.306;8.608;2024-02-21T08:40:06;95916.94;;;6.61;70.79
57462;BME280;43308;47.306;8.608;2024-02-21T08:42:35;95912.25;;;6.73;68.87
57462;BME280;43308;47.306;8.608;2024-02-21T08:45:02;95907.81;;;6.88;67.75
57462;BME280;43308;47.306;8.608;2024-02-21T08:47:27;95910.53;;;6.99;66.20
57462;BME280;43308;47.306;8.608;2024-02-21T08:49:53;95912.72;;;7.12;65.69
57462;BME280;43308;47.306;8.608;2024-02-21T08:52:19;95909.56;;;7.20;64.13
57462;BME280;43308;47.306;8.608;2024-02-21T08:54:45;95911.44;;;7.24;62.15
57462;BME280;43308;47.306;8.608;2024-02-21T08:57:11;95907.78;;;7.35;61.96
57462;BME280;43308;47.306;8.608;2024-02-21T08:59:40;95910.44;;;7.40;61.52
57462;BME280;43308;47.306;8.608;2024-02-21T09:02:06;95914.47;;;7.48;61.57
57462;BME280;43308;47.306;8.608;2024-02-21T09:04:33;95903.03;;;7.53;64.23
57462;BME280;43308;47.306;8.608;2024-02-21T09:06:59;95900.94;;;7.55;65.48
57462;BME280;43308;47.306;8.608;2024-02-21T09:09:25;95905.44;;;7.59;66.89
57462;BME280;43308;47.306;8.608;2024-02-21T09:11:51;95898.56;;;7.63;66.76
57462;BME280;43308;47.306;8.608;2024-02-21T09:14:17;95896.16;;;7.72;66.38
57462;BME280;43308;47.306;8.608;2024-02-21T09:16:43;95902.03;;;7.84;66.65
57462;BME280;43308;47.306;8.608;2024-02-21T09:19:09;95897.25;;;7.86;65.72
57462;BME280;43308;47.306;8.608;2024-02-21T09:21:38;95899.94;;;7.86;65.92
57462;BME280;43308;47.306;8.608;2024-02-21T09:24:05;95897.00;;;7.92;65.42
57462;BME280;43308;47.306;8.608;2024-02-21T09:26:31;95897.25;;;7.91;66.14
57462;BME280;43308;47.306;8.608;2024-02-21T09:28:57;95895.69;;;7.95;65.97
57462;BME280;43308;47.306;8.608;2024-02-21T09:31:23;95893.56;;;8.07;65.83
57462;BME280;43308;47.306;8.608;2024-02-21T09:33:49;95887.16;;;8.13;65.52
57462;BME280;43308;47.306;8.608;2024-02-21T09:36:15;95888.22;;;8.22;63.46
57462;BME280;43308;47.306;8.608;2024-02-21T09:38:41;95885.59;;;8.32;61.91
57462;BME280;43308;47.306;8.608;2024-02-21T09:41:18;95886.41;;;8.43;63.47
57462;BME280;43308;47.306;8.608;2024-02-21T09:43:44;95886.38;;;8.48;63.09
57462;BME280;43308;47.306;8.608;2024-02-21T09:46:19;95875.22;;;8.56;62.80
57462;BME280;43308;47.306;8.608;2024-02-21T09:51:32;95877.63;;;8.52;63.68
57462;BME280;43308;47.306;8.608;2024-02-21T09:54:00;95872.81;;;8.49;63.56
57462;BME280;43308;47.306;8.608;2024-02-21T09:56:26;95869.34;;;8.54;63.22
57462;BME280;43308;47.306;8.608;2024-02-21T09:58:52;95861.59;;;8.63;62.67
57462;BME280;43308;47.306;8.608;2024-02-21T10:01:18;95861.59;;;8.73;61.91
57462;BME280;43308;47.306;8.608;2024-02-21T10:03:44;95850.09;;;8.87;61.03
57462;BME280;43308;47.306;8.608;2024-02-21T10:06:09;95865.75;;;9.04;59.63
57462;BME280;43308;47.306;8.608;2024-02-21T10:08:35;95861.69;;;9.22;55.91
57462;BME280;43308;47.306;8.608;2024-02-21T10:11:01;95864.00;;;9.38;55.92
57462;BME280;43308;47.306;8.608;2024-02-21T10:13:29;95870.59;;;9.51;55.05
57462;BME280;43308;47.306;8.608;2024-02-21T10:16:06;95851.34;;;9.59;52.37
57462;BME280;43308;47.306;8.608;2024-02-21T10:18:33;95861.66;;;9.71;52.30
57462;BME280;43308;47.306;8.608;2024-02-21T10:21:06;95854.91;;;9.83;51.68
57462;BME280;43308;47.306;8.608;2024-02-21T10:23:46;95841.22;;;10.00;52.22
57462;BME280;43308;47.306;8.608;2024-02-21T10:26:13;95841.09;;;10.15;52.11
57462;BME280;43308;47.306;8.608;2024-02-21T10:28:39;95835.38;;;10.32;51.28
57462;BME280;43308;47.306;8.608;2024-02-21T10:31:11;95832.31;;;10.43;50.59
57462;BME280;43308;47.306;8.608;2024-02-21T10:33:37;95837.00;;;10.56;49.93
57462;BME280;43308;47.306;8.608;2024-02-21T10:36:10;95840.59;;;10.71;50.31
57462;BME280;43308;47.306;8.608;2024-02-21T10:38:37;95835.59;;;10.88;50.39
57462;BME280;43308;47.306;8.608;2024-02-21T10:41:05;95830.81;;;11.08;49.52
57462;BME280;43308;47.306;8.608;2024-02-21T10:43:37;95823.75;;;11.17;49.09
57462;BME280;43308;47.306;8.608;2024-02-21T10:46:09;95820.47;;;11.26;51.13
57462;BME280;43308;47.306;8.608;2024-02-21T10:48:43;95827.94;;;11.24;50.11
57462;BME280;43308;47.306;8.608;2024-02-21T10:51:17;95822.16;;;11.16;50.74
57462;BME280;43308;47.306;8.608;2024-02-21T10:53:45;95817.59;;;11.17;50.20
57462;BME280;43308;47.306;8.608;2024-02-21T10:58:48;95812.25;;;11.17;49.17
57462;BME280;43308;47.306;8.608;2024-02-21T11:01:15;95811.19;;;11.18;48.55
57462;BME280;43308;47.306;8.608;2024-02-21T11:03:44;95799.41;;;11.19;50.16
57462;BME280;43308;47.306;8.608;2024-02-21T11:06:12;95802.44;;;11.12;51.51
57462;BME280;43308;47.306;8.608;2024-02-21T11:08:39;95789.56;;;10.96;51.06
57462;BME280;43308;47.306;8.608;2024-02-21T11:11:05;95788.59;;;10.87;51.93
57462;BME280;43308;47.306;8.608;2024-02-21T11:13:32;95784.56;;;10.89;51.50
57462;BME280;43308;47.306;8.608;2024-02-21T11:16:11;95772.38;;;11.02;51.66
57462;BME280;43308;47.306;8.608;2024-02-21T11:18:38;95763.78;;;11.24;49.62
57462;BME280;43308;47.306;8.608;2024-02-21T11:21:04;95759.03;;;11.39;49.03
57462;BME280;43308;47.306;8.608;2024-02-21T11:23:31;95749.91;;;11.59;48.44
57462;BME280;43308;47.306;8.608;2024-02-21T11:26:07;95737.34;;;11.78;47.25
57462;BME280;43308;47.306;8.608;2024-02-21T11:28:33;95734.41;;;11.93;45.99
57462;BME280;43308;47.306;8.608;2024-02-21T11:31:10;95731.66;;;12.12;46.96
57462;BME280;43308;47.306;8.608;2024-02-21T11:33:39;95732.50;;;12.26;46.88
57462;BME280;43308;47.306;8.608;2024-02-21T11:36:06;95728.31;;;12.34;46.97
57462;BME280;43308;47.306;8.608;2024-02-21T11:38:31;95722.97;;;12.34;45.93
57462;BME280;43308;47.306;8.608;2024-02-21T11:40:57;95715.44;;;12.36;44.51
57462;BME280;43308;47.306;8.608;2024-02-21T11:43:24;95704.06;;;12.30;44.23
57462;BME280;43308;47.306;8.608;2024-02-21T11:45:50;95706.13;;;12.19;43.51
57462;BME280;43308;47.306;8.608;2024-02-21T11:48:16;95699.75;;;12.15;44.43
57462;BME280;43308;47.306;8.608;2024-02-21T11:50:42;95695.41;;;12.19;45.22
57462;BME280;43308;47.306;8.608;2024-02-21T11:53:09;95688.19;;;12.20;43.49
57462;BME280;43308;47.306;8.608;2024-02-21T11:55:35;95687.47;;;12.14;43.32
57462;BME280;43308;47.306;8.608;2024-02-21T11:58:00;95684.81;;;12.14;43.33
57462;BME280;43308;47.306;8.608;2024-02-21T12:00:26;95676.34;;;12.21;43.52
57462;BME280;43308;47.306;8.608;2024-02-21T12:02:52;95676.38;;;12.35;42.94
57462;BME280;43308;47.306;8.608;2024-02-21T12:05:19;95674.38;;;12.54;42.55
57462;BME280;43308;47.306;8.608;2024-02-21T12:07:45;95655.63;;;12.67;42.53
57462;BME280;43308;47.306;8.608;2024-02-21T12:10:11;95654.09;;;12.75;41.72
57462;BME280;43308;47.306;8.608;2024-02-21T12:12:38;95654.09;;;12.75;41.19
57462;BME280;43308;47.306;8.608;2024-02-21T12:15:05;95652.13;;;12.81;42.41
57462;BME280;43308;47.306;8.608;2024-02-21T12:17:35;95644.34;;;12.93;42.93
57462;BME280;43308;47.306;8.608;2024-02-21T12:20:04;95637.06;;;13.07;42.54
57462;BME280;43308;47.306;8.608;2024-02-21T12:22:38;95641.75;;;13.15;43.24
57462;BME280;43308;47.306;8.608;2024-02-21T12:25:04;95628.53;;;13.05;42.66
57462;BME280;43308;47.306;8.608;2024-02-21T12:27:33;95628.16;;;13.11;42.64
57462;BME280;43308;47.306;8.608;2024-02-21T12:29:59;95623.34;;;13.22;42.29
57462;BME280;43308;47.306;8.608;2024-02-21T12:32:25;95617.25;;;13.30;41.06
57462;BME280;43308;47.306;8.608;2024-02-21T12:34:51;95615.78;;;13.24;40.49
57462;BME280;43308;47.306;8.608;2024-02-21T12:37:16;95613.53;;;13.17;41.27
57462;BME280;43308;47.306;8.608;2024-02-21T12:39:42;95609.06;;;13.35;41.79
57462;BME280;43308;47.306;8.608;2024-02-21T12:42:09;95613.13;;;13.55;41.67
57462;BME280;43308;47.306;8.608;2024-02-21T12:44:37;95609.72;;;13.63;40.61
57462;BME280;43308;47.306;8.608;2024-02-21T12:47:03;95602.88;;;13.79;40.16
57462;BME280;43308;47.306;8.608;2024-02-21T12:49:29;95591.53;;;13.91;40.91
57462;BME280;43308;47.306;8.608;2024-02-21T12:51:55;95596.16;;;13.99;40.82
57462;BME280;43308;47.306;8.608;2024-02-21T12:54:21;95581.34;;;14.01;40.62
57462;BME280;43308;47.306;8.608;2024-02-21T12:56:47;95581.44;;;13.96;40.90
57462;BME280;43308;47.306;8.608;2024-02-21T12:59:13;95582.44;;;14.00;39.89
57462;BME280;43308;47.306;8.608;2024-02-21T13:01:39;95567.31;;;14.13;40.65
57462;BME280;43308;47.306;8.608;2024-02-21T13:04:05;95568.09;;;14.13;40.18
57462;BME280;43308;47.306;8.608;2024-02-21T13:06:31;95560.50;;;14.15;40.88
57462;BME280;43308;47.306;8.608;2024-02-21T13:08:57;95559.59;;;14.20;40.84
57462;BME280;43308;47.306;8.608;2024-02-21T13:11:23;95551.66;;;14.15;40.98
57462;BME280;43308;47.306;8.608;2024-02-21T13:13:52;95550.28;;;14.17;40.09